Terminal Aerodrome Forecast
Issued by NWS North Platte, NE

Home | Current Version | Previous Version | Text Only | Print | Product List | Glossary On
Versions: 1 2 3 4 5 6 7 8 9 10 11 12 13 14 15
901
FTUS43 KLBF 030520
TAFVTN
TAF
KVTN 030520Z 0306/0406 20004KT P6SM FEW090 SCT200
     FM030900 20005KT P6SM BKN110
     FM031600 21010KT P6SM SCT200
     FM040100 24006KT P6SM SCT110 BKN200=

USA.gov is the U.S. government's official web portal to all federal, state and local government web resources and services.